Terminal Aerodrome Forecast
Issued by NWS Wilmington, NC

Current Version | Previous Version | Text Only | Print | Product List | Glossary On
Versions: 1 2 3 4 5 6 7 8 9 10 11 12
000
FTUS42 KILM 301100
TAFMYR
TAF
KMYR 301130Z 3012/3112 VRB05KT P6SM SCT018 SCT070
     FM301500 15012KT P6SM SCT020 SCT080
     FM310800 VRB02KT 5SM BR BKN010=

USA.gov is the U.S. government's official web portal to all federal, state and local government web resources and services.